トルトラ島 の空港の天気 - METARとTAF

テラス・B・レットサム国際空港 ( TUPJ / EIS ) - イギリス領ヴァージン諸島 トルトラ島
飛行場実況気象(Metar)
観測時間12/01 20:00 AST (12/02 00:00 UTC)
風向・風速不定 1m/s
視程10km以上
天気現象
少しの雲 雲底高度 610m
気温25℃
湿度78%
気圧1015hPa
METARTUPJ 020000Z VRB01KT 10SM FEW020 25/21 A2998 RMK Q1015 VIS16KM
過去の天気等 Google飛行場航空写真 Wunderground天気予報

過去48時間のMETAR

飛行場予報(TAF)
発表時間: 12/01 13:00 AST (12/01 17:00 UTC)
予報対象時間: 1日14時 AST ~ 2日14時 AST
風向・風速東 4m/s
視程10km以上
全天の4割程度の雲 雲底高度 610m
TAF TUPJ 011700Z 0118/0218 08007KT 9999 SCT020